Aeroporto :
LOGIN :

Iscrizione | Disclaimer

   EN    FR    IT 

 










Sommario :    VFR   VFR Marginale   IFR   IFR Intensivo   IFR Molto Intensivo
Visibilità : 
Base nubi : 
>= 8 km
>= 3000ft
5 / 8 km
1000 / 3000 ft
1500m / 5 km
500 / 1000 ft
800 / 1500m
200 / 500 ft
< 800m
< 200 ft
Simboli :   Temporali  Nebbia  Neve Forte  Precipitazioni Forti  Vento > 20 kt
SIGMETs :   Varie  Temporali  Ghiacco  Turbolenza  Onda orograficha  Ceneri Vulcaniche






- Altitudine del aeroporto : 309 ft
- Codice IATA : FNI


LFTW - Nîmes Garons

ULTIMO METAR :
  • 250630Z AUTO 27005KT CAVOK 07/00 Q1014 NOSIG

METARs OBSOLETI :
  • 250600Z AUTO 28004KT CAVOK 08/M00 Q1014 NOSIG
  • 250530Z AUTO 27005KT CAVOK 07/M00 Q1014 NOSIG
  • 250500Z AUTO 27005KT CAVOK 08/M00 Q1014 NOSIG
  • 250430Z AUTO 29004KT 260V320 CAVOK 08/M00 Q1014 NOSIG

TAF TAF LFTW
Valido dal 25 a 03 ore il 26 a 03 ore UTC


250200Z 2503/2603 27005KT CAVOK
BECMG 2510/2512 28012G22KT



MetMap, La meteo Aeronautica in un colpo d'occhio ! - Copyright ORBIFLY Dicembre 2007 - Disclaimer

ORBIFLY MET'MAP TEAM :

Programmazione e sviluppo : Alexandra Zaïnal
Concezione : Baudouin d'Aumeries
Aiuto per la programmazione : Marc-Olivier Méhu
Supporto tecnico e logistico : Manuel Goepfert
Aiuto per la traduzione : Arnaldo La Scala

Contatto : metmap@orbifly.com




FONTI E CREDITI :

   NOAA